Time;durP1;ratioP1;P1;durP2;ratioP2;P2;SDS_P1;SDS_P2;PMS_P1;PMS_P2;Temp;Humidity;BMP_temperature;BMP_pressure;BME280_temperature;BME280_humidity;BME280_pressure;Samples;Min_cycle;Max_cycle;Signal;HPM_P1;HPM_P2
2022/08/19 00:00:51;;;;;;;27.17;24.37;;;19.70;99.90;;;;;;5032120;28;20277;-77
2022/08/19 00:03:18;;;;;;;29.13;26.53;;;19.60;99.90;;;;;;5025962;28;20665;-77
2022/08/19 00:05:45;;;;;;;33.93;30.83;;;19.60;99.90;;;;;;5030009;28;20203;-77
2022/08/19 00:08:12;;;;;;;32.50;29.50;;;19.60;99.90;;;;;;5030497;28;20244;-77
2022/08/19 00:10:40;;;;;;;34.30;30.90;;;19.60;99.90;;;;;;5025259;28;20226;-77
2022/08/19 00:13:07;;;;;;;31.13;28.27;;;19.50;99.90;;;;;;5024801;28;20211;-77
2022/08/19 00:15:34;;;;;;;30.37;27.57;;;19.50;99.90;;;;;;5032849;28;20234;-77
2022/08/19 00:18:00;;;;;;;31.87;28.97;;;19.50;99.90;;;;;;5033917;28;20244;-77
2022/08/19 00:20:27;;;;;;;32.63;29.47;;;19.50;99.90;;;;;;5025745;28;20250;-77
2022/08/19 00:22:55;;;;;;;33.07;29.90;;;19.50;99.90;;;;;;5029867;28;20226;-77
2022/08/19 00:25:22;;;;;;;34.57;31.17;;;19.50;99.90;;;;;;5024336;28;20202;-77
2022/08/19 00:27:50;;;;;;;33.87;30.53;;;19.40;99.90;;;;;;5024678;28;20202;-77
2022/08/19 00:30:17;;;;;;;36.00;32.60;;;19.40;99.90;;;;;;5032590;28;20646;-77
2022/08/19 00:32:44;;;;;;;33.40;30.33;;;19.40;99.90;;;;;;5025785;28;20659;-78
2022/08/19 00:35:11;;;;;;;37.43;33.63;;;19.30;99.90;;;;;;5023901;28;20268;-77
2022/08/19 00:37:42;;;;;;;33.57;30.57;;;19.30;99.90;;;;;;5030682;28;20241;-77
2022/08/19 00:40:12;;;;;;;34.87;31.60;;;19.30;99.90;;;;;;5031424;28;20226;-77
2022/08/19 00:42:39;;;;;;;32.93;29.83;;;19.30;99.90;;;;;;5025126;28;20203;-77
2022/08/19 00:45:14;;;;;;;34.73;31.50;;;19.30;99.90;;;;;;5031916;28;20566;-77
2022/08/19 00:47:41;;;;;;;32.77;29.50;;;19.30;99.90;;;;;;5033116;28;20617;-77
2022/08/19 00:50:10;;;;;;;32.37;29.37;;;19.30;99.90;;;;;;5023904;28;20230;-77
2022/08/19 00:52:44;;;;;;;25.33;22.73;;;19.30;99.90;;;;;;5033981;28;20260;-77
2022/08/19 00:55:14;;;;;;;24.90;22.40;;;19.30;99.90;;;;;;5025333;28;20210;-77
2022/08/19 00:57:48;;;;;;;30.67;27.47;;;19.30;99.90;;;;;;5033482;28;20276;-77
2022/08/19 01:00:19;;;;;;;27.17;24.37;;;19.30;99.90;;;;;;5017880;28;20213;-77
2022/08/19 01:02:47;;;;;;;27.57;24.67;;;19.30;99.90;;;;;;5037113;28;20264;-77
2022/08/19 01:05:20;;;;;;;27.03;24.23;;;19.20;99.90;;;;;;5030529;28;20637;-77
2022/08/19 01:07:48;;;;;;;28.80;25.70;;;19.20;99.90;;;;;;5026698;28;20608;-77
2022/08/19 01:10:18;;;;;;;26.23;23.43;;;19.20;99.90;;;;;;5031417;28;20222;-77
2022/08/19 01:12:46;;;;;;;26.30;23.70;;;19.20;99.90;;;;;;5032992;28;20685;-77
2022/08/19 01:15:18;;;;;;;27.13;24.37;;;19.20;99.90;;;;;;5025146;28;20269;-77
2022/08/19 01:17:46;;;;;;;26.77;23.13;;;19.20;99.90;;;;;;5025113;28;20593;-76
2022/08/19 01:20:15;;;;;;;26.73;24.00;;;19.20;99.90;;;;;;5023535;28;20275;-76
2022/08/19 01:22:45;;;;;;;23.67;21.13;;;19.20;99.90;;;;;;5025410;28;20202;-77
2022/08/19 01:25:14;;;;;;;24.97;22.27;;;19.20;99.90;;;;;;5031246;28;20201;-77
2022/08/19 01:27:43;;;;;;;24.40;21.80;;;19.20;99.90;;;;;;5032313;28;20198;-77
2022/08/19 01:30:12;;;;;;;24.47;21.80;;;19.20;99.90;;;;;;5024819;28;20234;-76
2022/08/19 01:32:39;;;;;;;25.83;23.13;;;19.20;99.90;;;;;;5027735;28;20209;-76
2022/08/19 01:35:07;;;;;;;25.10;22.43;;;19.10;99.90;;;;;;5029237;28;20702;-77
2022/08/19 01:37:47;;;;;;;24.47;21.60;;;19.10;99.90;;;;;;5024302;28;20252;-77
2022/08/19 01:40:14;;;;;;;22.30;20.10;;;19.10;99.90;;;;;;5032709;28;20277;-77
2022/08/19 01:42:41;;;;;;;22.67;20.27;;;19.10;99.90;;;;;;5023686;28;20199;-77
2022/08/19 01:45:09;;;;;;;22.30;19.70;;;19.00;99.90;;;;;;5027746;28;20206;-76
2022/08/19 01:47:37;;;;;;;24.97;20.97;;;19.00;99.90;;;;;;5025509;28;20273;-77
2022/08/19 01:50:06;;;;;;;23.87;21.37;;;19.00;99.90;;;;;;5028889;28;20260;-77
2022/08/19 01:52:35;;;;;;;22.90;20.37;;;19.00;99.90;;;;;;5026297;28;20215;-77
2022/08/19 01:55:04;;;;;;;24.40;21.30;;;19.00;99.90;;;;;;5021803;28;20211;-77
2022/08/19 01:57:31;;;;;;;23.70;21.30;;;19.00;99.90;;;;;;5026229;28;20614;-77
2022/08/19 01:59:59;;;;;;;22.40;20.10;;;19.00;99.90;;;;;;5028997;28;20221;-77
2022/08/19 02:02:26;;;;;;;24.33;21.73;;;19.00;99.90;;;;;;5026575;28;20292;-77
2022/08/19 02:04:53;;;;;;;21.73;19.53;;;19.00;99.90;;;;;;5023351;28;20976;-77
2022/08/19 02:07:21;;;;;;;21.80;19.60;;;18.90;99.90;;;;;;5032490;28;20204;-77
2022/08/19 02:09:48;;;;;;;25.67;22.87;;;18.90;99.90;;;;;;5026498;28;20254;-77
2022/08/19 02:12:16;;;;;;;24.90;22.27;;;19.00;99.90;;;;;;5024736;28;20198;-77
2022/08/19 02:14:43;;;;;;;21.87;19.57;;;19.00;99.90;;;;;;5024130;28;20546;-77
2022/08/19 02:17:10;;;;;;;22.97;20.30;;;19.00;99.90;;;;;;5023276;28;20203;-77
2022/08/19 02:19:37;;;;;;;23.43;21.03;;;19.00;99.90;;;;;;5031067;28;20222;-77
2022/08/19 02:22:04;;;;;;;20.97;18.87;;;18.90;99.90;;;;;;5031920;28;21130;-77
2022/08/19 02:24:31;;;;;;;24.53;21.83;;;19.00;99.90;;;;;;5037451;28;20205;-77
2022/08/19 02:26:58;;;;;;;23.10;20.57;;;19.00;99.90;;;;;;5031832;28;20341;-77
2022/08/19 02:29:26;;;;;;;24.83;21.90;;;18.90;99.90;;;;;;5032636;28;20217;-77
2022/08/19 02:31:53;;;;;;;21.20;19.10;;;18.90;99.90;;;;;;5038733;28;20666;-77
2022/08/19 02:34:20;;;;;;;22.13;19.83;;;18.90;99.90;;;;;;5030612;28;20237;-77
2022/08/19 02:36:46;;;;;;;25.00;21.77;;;18.90;99.90;;;;;;5038274;28;20210;-77
2022/08/19 02:39:13;;;;;;;22.60;20.27;;;18.90;99.90;;;;;;5028446;28;20271;-76
2022/08/19 02:41:40;;;;;;;24.07;21.30;;;18.90;99.90;;;;;;5031281;28;20198;-77
2022/08/19 02:44:07;;;;;;;25.13;22.03;;;18.90;99.90;;;;;;5033859;28;20256;-78
2022/08/19 02:46:36;;;;;;;23.37;20.87;;;18.90;99.90;;;;;;5032688;28;20661;-77
2022/08/19 02:49:05;;;;;;;22.33;20.03;;;18.80;99.90;;;;;;5029230;28;20279;-77
2022/08/19 02:51:35;;;;;;;23.77;21.10;;;18.80;99.90;;;;;;5025627;28;20654;-78
2022/08/19 02:54:03;;;;;;;20.47;18.33;;;18.80;99.90;;;;;;5038473;28;20666;-81
2022/08/19 02:56:30;;;;;;;22.50;20.17;;;18.80;99.90;;;;;;5040139;28;20243;-80
2022/08/19 02:58:58;;;;;;;22.23;19.83;;;18.80;99.90;;;;;;5033761;28;20224;-77
2022/08/19 03:01:27;;;;;;;23.37;20.67;;;18.80;99.90;;;;;;5036865;28;20258;-77
2022/08/19 03:03:57;;;;;;;23.17;20.77;;;18.70;99.90;;;;;;5027513;28;20206;-76
2022/08/19 03:06:24;;;;;;;21.00;18.83;;;18.70;99.90;;;;;;5030341;28;20192;-76
2022/08/19 03:08:52;;;;;;;23.70;20.40;;;18.70;99.90;;;;;;5031357;28;20209;-78
2022/08/19 03:11:21;;;;;;;20.47;18.43;;;18.70;99.90;;;;;;5035257;28;20200;-77
2022/08/19 03:13:50;;;;;;;20.97;18.80;;;18.70;99.90;;;;;;5036605;28;20676;-76
2022/08/19 03:16:17;;;;;;;22.13;19.73;;;18.70;99.90;;;;;;5025508;28;20229;-78
2022/08/19 03:18:44;;;;;;;21.17;18.97;;;18.60;99.90;;;;;;5033021;28;20201;-78
2022/08/19 03:21:16;;;;;;;21.60;19.30;;;18.60;99.90;;;;;;5037687;28;20205;-78
2022/08/19 03:23:43;;;;;;;23.30;20.80;;;18.60;99.90;;;;;;5039412;28;20208;-79
2022/08/19 03:26:10;;;;;;;22.13;19.73;;;18.60;99.90;;;;;;5040126;28;20193;-78
2022/08/19 03:28:37;;;;;;;23.23;20.93;;;18.60;99.90;;;;;;5039709;28;20728;-78
2022/08/19 03:31:07;;;;;;;23.53;20.80;;;18.50;99.90;;;;;;5037421;28;20201;-78
2022/08/19 03:33:35;;;;;;;23.97;19.87;;;18.50;99.90;;;;;;5033363;28;20293;-78
2022/08/19 03:36:14;;;;;;;22.77;20.37;;;18.50;99.90;;;;;;5034631;28;20249;-78
2022/08/19 03:38:44;;;;;;;23.43;20.90;;;18.50;99.90;;;;;;5035015;28;20249;-79
2022/08/19 03:41:15;;;;;;;22.27;19.87;;;18.50;99.90;;;;;;5028773;28;20209;-77
2022/08/19 03:43:43;;;;;;;22.53;20.23;;;18.50;99.90;;;;;;5030532;28;20200;-77
2022/08/19 03:46:13;;;;;;;21.37;19.00;;;18.50;99.90;;;;;;5028082;28;20244;-77
2022/08/19 03:48:41;;;;;;;21.50;18.47;;;18.50;99.90;;;;;;5027536;28;20204;-77
2022/08/19 03:51:15;;;;;;;22.13;19.93;;;18.50;99.90;;;;;;5027414;28;20191;-77
2022/08/19 03:53:43;;;;;;;23.27;20.50;;;18.50;99.90;;;;;;5028092;28;20213;-77
2022/08/19 03:56:12;;;;;;;24.53;22.03;;;18.50;99.90;;;;;;5030138;28;20671;-77
2022/08/19 03:58:40;;;;;;;21.80;19.47;;;18.40;99.90;;;;;;5031528;28;20250;-77
2022/08/19 04:01:08;;;;;;;22.53;20.03;;;18.40;99.90;;;;;;5028761;28;20519;-77
2022/08/19 04:03:35;;;;;;;23.30;20.80;;;18.40;99.90;;;;;;5033314;28;20255;-78
2022/08/19 04:06:10;;;;;;;24.50;21.00;;;18.40;99.90;;;;;;5024931;28;20193;-78
2022/08/19 04:08:37;;;;;;;23.50;20.57;;;18.40;99.90;;;;;;5034000;28;20215;-77
2022/08/19 04:11:12;;;;;;;25.03;20.93;;;18.40;99.90;;;;;;5034953;28;20208;-78
2022/08/19 04:13:40;;;;;;;23.23;20.30;;;18.40;99.90;;;;;;5028434;28;20242;-77
2022/08/19 04:16:09;;;;;;;24.50;20.37;;;18.40;99.90;;;;;;5025855;28;20208;-78
2022/08/19 04:18:37;;;;;;;23.80;21.30;;;18.40;99.90;;;;;;5028894;28;20235;-78
2022/08/19 04:21:04;;;;;;;23.63;20.83;;;18.40;99.90;;;;;;5033727;28;20208;-78
2022/08/19 04:23:32;;;;;;;23.87;20.80;;;18.40;99.90;;;;;;5027337;28;20209;-77
2022/08/19 04:25:59;;;;;;;23.23;19.87;;;18.30;99.90;;;;;;5031965;28;20297;-81
2022/08/19 04:28:28;;;;;;;27.17;22.97;;;18.40;99.90;;;;;;5028787;28;20203;-80
2022/08/19 04:30:56;;;;;;;27.67;24.67;;;18.40;99.90;;;;;;5026570;28;20217;-81
2022/08/19 04:33:28;;;;;;;26.33;22.93;;;18.30;99.90;;;;;;5025171;28;20201;-80
2022/08/19 04:35:56;;;;;;;26.37;22.10;;;18.30;99.90;;;;;;5035367;28;20677;-79
2022/08/19 04:38:23;;;;;;;25.17;22.13;;;18.40;99.90;;;;;;5024073;28;20300;-79
2022/08/19 04:43:39;;;;;;;27.23;24.23;;;18.40;99.90;;;;;;5033193;28;20222;-78
2022/08/19 04:46:06;;;;;;;27.47;23.73;;;18.40;99.90;;;;;;5026566;28;20251;-79
2022/08/19 04:48:33;;;;;;;28.83;23.97;;;18.50;99.90;;;;;;5024423;28;20201;-78
2022/08/19 04:51:00;;;;;;;26.83;23.03;;;18.50;99.90;;;;;;5025820;28;20656;-78
2022/08/19 04:53:28;;;;;;;27.13;23.57;;;18.50;99.90;;;;;;5038972;28;20196;-78
2022/08/19 04:55:56;;;;;;;27.73;23.67;;;18.50;99.90;;;;;;5030269;28;20281;-79
2022/08/19 04:58:23;;;;;;;29.50;25.47;;;18.60;99.90;;;;;;5027366;28;20201;-79
2022/08/19 05:00:51;;;;;;;32.50;24.80;;;18.60;99.90;;;;;;5026293;28;20221;-79
2022/08/19 05:03:18;;;;;;;29.97;24.73;;;18.50;99.90;;;;;;5028955;28;20207;-79
2022/08/19 05:05:48;;;;;;;26.50;22.43;;;18.60;99.90;;;;;;5035044;28;20212;-78
2022/08/19 05:08:19;;;;;;;22.03;19.63;;;18.60;99.90;;;;;;5028993;28;20211;-78
2022/08/19 05:10:47;;;;;;;24.27;21.67;;;18.60;99.90;;;;;;5031693;28;20218;-79
2022/08/19 05:13:15;;;;;;;26.90;22.43;;;18.70;99.90;;;;;;5028751;28;20202;-78
2022/08/19 05:15:42;;;;;;;24.47;21.87;;;18.70;99.90;;;;;;5028608;28;20202;-78
2022/08/19 05:23:40;;;;;;;24.00;21.60;;;18.70;99.90;;;;;;5030963;28;20934;-80
2022/08/19 05:26:09;;;;;;;24.13;21.53;;;18.70;99.90;;;;;;5031238;28;20650;-80
2022/08/19 05:28:35;;;;;;;25.33;22.50;;;18.70;99.90;;;;;;5025011;28;20210;-80
2022/08/19 05:31:02;;;;;;;22.27;19.00;;;18.70;99.90;;;;;;5030608;28;20222;-79
2022/08/19 05:33:31;;;;;;;23.80;20.43;;;18.70;99.90;;;;;;5033237;28;20196;-79
2022/08/19 05:35:58;;;;;;;24.80;20.90;;;18.80;99.90;;;;;;5030869;28;20193;-78
2022/08/19 05:38:26;;;;;;;27.17;23.13;;;18.80;99.90;;;;;;5037633;28;20215;-80
2022/08/19 05:40:53;;;;;;;24.47;21.90;;;18.70;99.90;;;;;;5034887;28;20233;-79
2022/08/19 05:43:20;;;;;;;23.20;20.83;;;18.70;99.90;;;;;;5023556;28;20731;-80
2022/08/19 05:45:46;;;;;;;26.10;22.53;;;18.80;99.90;;;;;;5031846;28;20690;-79
2022/08/19 05:48:14;;;;;;;24.40;21.90;;;18.80;99.90;;;;;;5024675;28;20210;-78
2022/08/19 05:50:44;;;;;;;26.43;22.97;;;18.80;99.90;;;;;;5033417;28;20227;-79
2022/08/19 05:53:11;;;;;;;23.67;21.00;;;18.80;99.90;;;;;;5030731;28;20639;-79
2022/08/19 05:55:39;;;;;;;25.13;21.63;;;18.80;99.90;;;;;;5031226;28;20197;-80
2022/08/19 05:58:07;;;;;;;23.03;20.57;;;18.80;99.90;;;;;;5029823;28;20224;-79
2022/08/19 06:00:34;;;;;;;22.80;20.10;;;18.80;99.90;;;;;;5029860;28;20725;-79
2022/08/19 06:03:03;;;;;;;24.00;21.40;;;18.80;99.90;;;;;;5029563;28;20212;-78
2022/08/19 06:05:30;;;;;;;26.67;22.23;;;18.90;99.90;;;;;;5027895;28;20200;-82
2022/08/19 06:07:59;;;;;;;25.13;22.13;;;18.90;99.90;;;;;;5030303;28;20197;-79
2022/08/19 06:10:26;;;;;;;22.33;20.03;;;18.90;99.90;;;;;;5034103;28;20221;-82
2022/08/19 06:12:54;;;;;;;21.30;19.10;;;18.90;99.90;;;;;;5028118;28;20220;-80
2022/08/19 06:15:26;;;;;;;23.00;20.60;;;18.90;99.90;;;;;;5031014;28;20202;-81
2022/08/19 06:17:52;;;;;;;25.07;22.17;;;19.00;99.90;;;;;;5034712;28;20215;-81
2022/08/19 06:20:20;;;;;;;25.03;22.43;;;19.00;99.90;;;;;;5026576;28;20241;-81
2022/08/19 06:22:49;;;;;;;23.93;21.37;;;19.00;99.90;;;;;;5019956;28;20234;-80
2022/08/19 06:25:17;;;;;;;24.93;22.20;;;19.10;99.90;;;;;;5034074;28;20701;-80
2022/08/19 06:27:45;;;;;;;25.07;21.50;;;19.10;99.90;;;;;;5033437;28;20723;-82
2022/08/19 06:30:13;;;;;;;27.13;24.23;;;19.10;99.90;;;;;;5025880;28;20702;-81
2022/08/19 06:32:40;;;;;;;24.90;22.20;;;19.10;99.90;;;;;;5024982;28;20206;-80
2022/08/19 06:35:08;;;;;;;23.40;20.77;;;19.10;99.90;;;;;;5022823;28;20202;-79
2022/08/19 06:37:34;;;;;;;24.03;21.57;;;19.10;99.90;;;;;;5028921;28;20766;-83
2022/08/19 06:40:01;;;;;;;25.17;22.08;;;19.20;99.90;;;;;;5029279;28;20437;-80
2022/08/19 06:42:30;;;;;;;23.43;21.00;;;19.10;99.90;;;;;;5026584;28;20221;-80
2022/08/19 06:44:57;;;;;;;24.63;22.07;;;19.10;99.90;;;;;;5023825;28;20196;-80
2022/08/19 06:47:25;;;;;;;26.33;23.33;;;19.20;99.90;;;;;;5026478;28;20214;-78
2022/08/19 06:49:55;;;;;;;25.33;22.83;;;19.20;99.90;;;;;;5027404;28;20433;-78
2022/08/19 06:52:23;;;;;;;26.07;23.27;;;19.20;99.90;;;;;;5024652;28;20207;-80
2022/08/19 06:54:50;;;;;;;25.83;22.60;;;19.20;99.90;;;;;;5028310;28;20227;-77
2022/08/19 06:57:17;;;;;;;25.13;22.43;;;19.20;99.90;;;;;;5030490;28;20227;-77
2022/08/19 06:59:45;;;;;;;25.50;22.77;;;19.20;99.90;;;;;;5028971;28;20715;-77
2022/08/19 07:02:12;;;;;;;24.63;21.83;;;19.20;99.90;;;;;;5030553;28;20666;-78
2022/08/19 07:04:39;;;;;;;26.33;22.67;;;19.20;99.90;;;;;;5028184;28;20676;-78
2022/08/19 07:07:12;;;;;;;25.13;22.63;;;19.10;99.90;;;;;;5030809;28;20199;-77
2022/08/19 07:09:41;;;;;;;25.20;22.50;;;19.10;99.90;;;;;;5029588;28;20284;-77
2022/08/19 07:12:11;;;;;;;27.20;24.30;;;19.10;99.90;;;;;;5031959;28;20894;-78
2022/08/19 07:14:39;;;;;;;26.37;22.87;;;19.10;99.90;;;;;;5032559;28;20198;-77
2022/08/19 07:17:08;;;;;;;25.50;22.33;;;19.10;99.90;;;;;;5029528;28;20717;-78
2022/08/19 07:19:37;;;;;;;26.03;23.27;;;19.00;99.90;;;;;;5033289;28;20227;-77
2022/08/19 07:22:05;;;;;;;28.87;24.50;;;19.10;99.90;;;;;;5028450;28;20231;-77
2022/08/19 07:24:32;;;;;;;25.13;22.43;;;19.00;99.90;;;;;;5032106;28;20207;-80
2022/08/19 07:27:02;;;;;;;29.93;23.90;;;19.00;99.90;;;;;;5028942;28;20214;-77
2022/08/19 07:29:32;;;;;;;26.73;22.67;;;19.00;99.90;;;;;;5035710;28;20643;-77
2022/08/19 07:32:00;;;;;;;25.27;22.37;;;19.10;99.90;;;;;;5034786;28;20676;-77
2022/08/19 07:34:30;;;;;;;28.43;25.33;;;19.10;99.90;;;;;;5031108;28;20686;-78
2022/08/19 07:36:57;;;;;;;31.43;25.03;;;19.10;99.90;;;;;;5033795;28;20214;-77
2022/08/19 07:39:26;;;;;;;27.63;24.13;;;19.10;99.90;;;;;;5030507;28;20222;-78
2022/08/19 07:41:55;;;;;;;27.43;24.33;;;19.10;99.90;;;;;;5032783;28;20234;-78
2022/08/19 07:44:22;;;;;;;28.90;25.67;;;19.10;99.90;;;;;;5029690;28;20199;-79
2022/08/19 07:46:52;;;;;;;28.97;24.40;;;19.10;99.90;;;;;;5031131;28;20203;-77
2022/08/19 07:49:20;;;;;;;27.93;24.07;;;19.20;99.90;;;;;;5026493;28;20689;-79
2022/08/19 07:51:50;;;;;;;30.00;26.70;;;19.20;99.90;;;;;;5031081;28;20202;-79
2022/08/19 07:54:17;;;;;;;27.67;24.70;;;19.20;99.90;;;;;;5032965;28;20197;-79
2022/08/19 07:56:44;;;;;;;27.50;24.53;;;19.20;99.90;;;;;;5027957;28;20262;-77
2022/08/19 07:59:11;;;;;;;25.97;23.27;;;19.20;99.90;;;;;;5029718;28;20257;-78
2022/08/19 08:01:39;;;;;;;29.17;24.43;;;19.20;99.90;;;;;;5031732;28;20474;-78
2022/08/19 08:09:40;;;;;;;29.50;26.30;;;19.10;99.90;;;;;;5031583;28;20229;-77
2022/08/19 08:12:10;;;;;;;29.90;26.63;;;19.00;99.90;;;;;;5029230;28;20194;-76
2022/08/19 08:14:41;;;;;;;30.53;27.27;;;19.00;99.90;;;;;;5027209;28;20208;-78
2022/08/19 08:17:09;;;;;;;32.53;27.10;;;19.00;99.90;;;;;;5034379;28;20228;-77
2022/08/19 08:19:36;;;;;;;33.83;25.40;;;19.00;99.90;;;;;;5032634;28;20222;-78
2022/08/19 08:22:06;;;;;;;25.60;22.83;;;19.00;99.90;;;;;;5031458;28;20198;-77
2022/08/19 08:24:35;;;;;;;28.27;23.73;;;19.10;99.90;;;;;;5030402;28;20660;-78
2022/08/19 08:27:03;;;;;;;31.93;24.80;;;19.10;99.90;;;;;;5025113;28;20202;-78
2022/08/19 08:29:31;;;;;;;29.03;25.87;;;19.10;99.90;;;;;;5032559;28;20609;-78
2022/08/19 08:31:58;;;;;;;33.67;27.57;;;19.10;99.90;;;;;;5032152;28;20292;-78
2022/08/19 08:34:25;;;;;;;27.50;24.57;;;19.10;99.90;;;;;;5029525;28;20712;-77
2022/08/19 08:36:52;;;;;;;30.30;26.80;;;19.10;99.90;;;;;;5032339;28;20199;-77
2022/08/19 08:39:22;;;;;;;32.53;27.47;;;19.00;99.90;;;;;;5033832;28;20225;-78
2022/08/19 08:41:56;;;;;;;29.80;25.50;;;19.00;99.90;;;;;;5027273;28;20202;-77
2022/08/19 08:44:32;;;;;;;31.40;27.87;;;18.90;99.90;;;;;;5031961;28;20616;-77
2022/08/19 08:47:03;;;;;;;31.80;27.47;;;18.80;99.90;;;;;;5022104;28;20209;-77
2022/08/19 08:49:37;;;;;;;30.30;26.43;;;18.80;99.90;;;;;;5013805;28;20226;-77
2022/08/19 08:52:10;;;;;;;32.70;27.63;;;18.80;99.90;;;;;;5031925;28;20209;-78
2022/08/19 08:54:42;;;;;;;32.10;27.30;;;18.80;99.90;;;;;;5029731;28;20205;-77
2022/08/19 08:57:14;;;;;;;29.97;26.70;;;18.70;99.90;;;;;;5030652;28;20290;-77
2022/08/19 08:59:44;;;;;;;33.80;29.17;;;18.70;99.90;;;;;;5028205;28;20829;-77
2022/08/19 09:02:10;;;;;;;35.00;28.20;;;18.70;99.90;;;;;;5024708;28;20254;-77
2022/08/19 09:04:38;;;;;;;33.70;29.70;;;18.80;99.90;;;;;;5028689;28;20210;-77
2022/08/19 09:07:34;;;;;;;34.73;28.73;;;18.70;99.90;;;;;;5031569;28;20202;-76
2022/08/19 09:10:11;;;;;;;32.03;26.97;;;18.70;99.90;;;;;;5030887;28;20279;-77
2022/08/19 09:12:44;;;;;;;35.60;29.80;;;18.80;99.90;;;;;;5033593;28;20200;-77
2022/08/19 09:15:14;;;;;;;36.17;28.43;;;18.80;99.90;;;;;;5028019;28;20244;-77
2022/08/19 09:17:40;;;;;;;29.50;26.10;;;18.70;99.90;;;;;;5031938;28;20215;-77
2022/08/19 09:20:18;;;;;;;33.10;27.67;;;18.70;99.90;;;;;;5028461;28;20218;-77
2022/08/19 09:22:45;;;;;;;32.53;27.33;;;18.70;99.90;;;;;;5031199;28;20205;-78
2022/08/19 09:25:16;;;;;;;32.73;26.77;;;18.70;99.90;;;;;;5024087;28;20213;-77
2022/08/19 09:27:44;;;;;;;32.03;27.67;;;18.70;99.90;;;;;;5031591;28;20189;-77
2022/08/19 09:30:15;;;;;;;26.03;23.23;;;18.70;99.90;;;;;;5021384;28;20279;-77
2022/08/19 09:32:43;;;;;;;34.67;28.37;;;18.70;99.90;;;;;;5020780;28;20203;-81
2022/08/19 09:35:10;;;;;;;35.13;30.03;;;18.70;99.90;;;;;;5031012;28;20233;-79
2022/08/19 09:37:37;;;;;;;31.53;27.67;;;18.70;99.90;;;;;;5032001;28;20213;-78
2022/08/19 09:40:05;;;;;;;32.90;28.10;;;18.80;99.90;;;;;;5026362;28;20307;-78
2022/08/19 09:42:33;;;;;;;34.97;28.63;;;18.80;99.90;;;;;;5027047;28;20220;-81
2022/08/19 09:45:00;;;;;;;29.47;25.27;;;18.80;99.90;;;;;;5027234;28;20204;-78
2022/08/19 09:47:27;;;;;;;31.83;26.90;;;18.80;99.90;;;;;;5032593;28;20278;-78
2022/08/19 09:49:54;;;;;;;30.30;27.03;;;18.80;99.90;;;;;;5023407;28;20605;-78
2022/08/19 09:52:21;;;;;;;28.10;25.03;;;18.90;99.90;;;;;;5028349;28;20204;-80
2022/08/19 09:54:48;;;;;;;28.13;25.10;;;18.90;99.90;;;;;;5028169;28;20591;-79
2022/08/19 09:57:15;;;;;;;32.07;28.10;;;18.90;99.90;;;;;;5030356;28;20259;-78
2022/08/19 09:59:44;;;;;;;34.33;27.27;;;18.90;99.90;;;;;;5024919;28;20248;-76
2022/08/19 10:02:11;;;;;;;33.80;28.07;;;18.90;99.90;;;;;;5026801;28;20681;-77
2022/08/19 10:07:31;;;;;;;31.67;26.10;;;18.80;99.90;;;;;;5011465;28;20244;-77
2022/08/19 10:09:58;;;;;;;30.57;26.67;;;18.90;99.90;;;;;;5022961;28;20222;-77
2022/08/19 10:12:25;;;;;;;29.53;26.33;;;18.90;99.90;;;;;;5028072;28;20224;-77
2022/08/19 10:14:54;;;;;;;32.93;28.27;;;18.90;99.90;;;;;;5030553;28;20201;-78
2022/08/19 10:17:21;;;;;;;28.57;25.47;;;18.80;99.90;;;;;;5024958;28;20265;-77
2022/08/19 10:19:48;;;;;;;29.10;25.10;;;18.90;99.90;;;;;;5020370;28;20222;-77
2022/08/19 10:22:15;;;;;;;25.80;22.57;;;18.90;99.90;;;;;;5028824;28;20206;-76
2022/08/19 10:24:42;;;;;;;30.10;26.23;;;18.90;99.90;;;;;;5022100;28;20656;-77
2022/08/19 10:27:09;;;;;;;28.83;25.30;;;18.90;99.90;;;;;;5023548;28;20710;-77
2022/08/19 10:29:36;;;;;;;31.90;27.40;;;18.90;99.90;;;;;;5027179;28;20621;-77
2022/08/19 10:32:07;;;;;;;32.17;26.90;;;18.90;99.90;;;;;;5022527;28;20207;-78
2022/08/19 10:34:36;;;;;;;27.70;24.70;;;18.90;99.90;;;;;;5026938;28;20198;-77
2022/08/19 10:37:05;;;;;;;30.47;26.67;;;18.90;99.90;;;;;;5023159;28;20207;-76
2022/08/19 10:39:33;;;;;;;28.00;24.93;;;18.90;99.90;;;;;;5026241;28;20245;-77
2022/08/19 10:42:00;;;;;;;27.00;24.10;;;18.90;99.90;;;;;;5023275;28;20207;-77
2022/08/19 10:44:28;;;;;;;28.40;24.57;;;18.90;99.90;;;;;;5025793;28;20259;-78
2022/08/19 10:46:55;;;;;;;39.30;31.40;;;19.00;99.90;;;;;;5029875;28;20203;-76
2022/08/19 10:49:23;;;;;;;39.40;31.60;;;19.00;99.90;;;;;;5025776;28;20273;-77
2022/08/19 10:57:23;;;;;;;30.87;26.40;;;19.00;99.90;;;;;;5003425;28;20285;-77
2022/08/19 10:59:51;;;;;;;29.83;26.63;;;19.00;99.90;;;;;;5032624;28;20661;-76
2022/08/19 11:02:17;;;;;;;30.57;26.23;;;18.90;99.90;;;;;;5028069;28;20207;-77
2022/08/19 11:04:45;;;;;;;30.47;26.47;;;18.90;99.90;;;;;;5034445;28;20202;-77
2022/08/19 11:07:12;;;;;;;28.37;25.37;;;18.90;99.90;;;;;;5027157;28;20198;-77
2022/08/19 11:09:41;;;;;;;32.33;29.07;;;18.90;99.90;;;;;;5025491;28;20773;-77
2022/08/19 11:12:09;;;;;;;33.27;29.57;;;18.90;99.90;;;;;;5025361;28;20282;-77
2022/08/19 11:14:36;;;;;;;31.43;28.30;;;18.90;99.90;;;;;;5027783;28;20256;-77
2022/08/19 11:17:04;;;;;;;30.90;27.67;;;18.90;99.90;;;;;;5030139;28;20265;-76
2022/08/19 11:19:32;;;;;;;30.70;27.60;;;18.90;99.90;;;;;;5031938;28;20749;-76
2022/08/19 11:22:02;;;;;;;30.87;27.57;;;18.90;99.90;;;;;;5029148;28;20248;-77
2022/08/19 11:24:30;;;;;;;26.97;24.03;;;18.90;99.90;;;;;;5029086;28;20252;-77
2022/08/19 11:27:06;;;;;;;28.00;24.93;;;18.90;99.90;;;;;;5026494;28;20659;-77
2022/08/19 11:29:34;;;;;;;27.53;24.60;;;19.00;99.90;;;;;;5025226;28;20311;-77
2022/08/19 11:32:04;;;;;;;28.53;25.37;;;19.00;99.90;;;;;;5026507;28;20544;-77
2022/08/19 11:34:31;;;;;;;29.20;25.70;;;19.00;99.90;;;;;;5030103;28;20687;-77
2022/08/19 11:37:00;;;;;;;28.30;24.67;;;19.10;99.90;;;;;;5026465;28;20210;-76
2022/08/19 11:39:29;;;;;;;25.37;22.67;;;19.10;99.90;;;;;;5028509;28;20231;-76
2022/08/19 11:41:58;;;;;;;27.77;24.73;;;19.10;99.90;;;;;;5029678;28;20203;-76
2022/08/19 11:44:25;;;;;;;28.20;25.10;;;19.20;99.90;;;;;;5043715;28;20674;-77
2022/08/19 11:46:52;;;;;;;27.40;24.37;;;19.20;99.90;;;;;;5031833;28;20202;-76
2022/08/19 11:49:21;;;;;;;26.90;23.73;;;19.20;99.90;;;;;;5025747;28;20280;-77
2022/08/19 11:51:50;;;;;;;27.77;24.77;;;19.30;99.90;;;;;;5029173;28;20220;-76
2022/08/19 11:54:19;;;;;;;30.93;27.77;;;19.20;99.90;;;;;;5060041;22;20233;-78
2022/08/19 11:56:47;;;;;;;33.50;29.93;;;19.20;99.90;;;;;;5054386;28;20199;-77
2022/08/19 11:59:14;;;;;;;32.40;29.10;;;19.20;99.90;;;;;;5054793;28;20658;-78
2022/08/19 12:01:42;;;;;;;31.53;28.50;;;19.20;99.90;;;;;;5055755;28;20729;-78
2022/08/19 12:04:09;;;;;;;29.50;26.60;;;19.10;99.90;;;;;;5055248;28;20218;-78
2022/08/19 12:06:39;;;;;;;32.43;29.10;;;19.20;99.90;;;;;;5055943;28;20202;-78
2022/08/19 12:09:09;;;;;;;33.80;29.23;;;19.20;99.90;;;;;;5055998;28;20194;-78
2022/08/19 12:11:38;;;;;;;29.23;26.23;;;19.20;99.90;;;;;;5047408;28;20691;-77
2022/08/19 12:14:05;;;;;;;27.90;25.10;;;19.20;99.90;;;;;;5044920;28;20249;-76
2022/08/19 12:16:34;;;;;;;29.63;26.63;;;19.20;99.90;;;;;;5052145;28;20245;-77
2022/08/19 12:19:03;;;;;;;29.00;26.30;;;19.20;99.90;;;;;;5052166;28;20222;-77
2022/08/19 12:21:32;;;;;;;27.67;24.87;;;19.20;99.90;;;;;;5053504;28;20286;-77
2022/08/19 12:24:01;;;;;;;27.87;25.17;;;19.20;99.90;;;;;;5046303;28;20304;-76
2022/08/19 12:26:31;;;;;;;26.33;23.73;;;19.30;99.90;;;;;;5052718;28;20203;-77
2022/08/19 12:29:00;;;;;;;25.87;23.13;;;19.30;99.90;;;;;;5047596;28;20244;-76
2022/08/19 12:31:27;;;;;;;28.13;25.33;;;19.30;99.90;;;;;;5052363;28;20229;-77
2022/08/19 12:33:54;;;;;;;24.67;21.97;;;19.30;99.90;;;;;;5052877;28;20766;-77
2022/08/19 12:36:22;;;;;;;22.90;20.63;;;19.20;99.90;;;;;;5049884;28;20206;-77
2022/08/19 12:38:49;;;;;;;24.87;22.30;;;19.30;99.90;;;;;;5052849;28;20209;-77
2022/08/19 12:41:18;;;;;;;23.67;21.30;;;19.30;99.90;;;;;;5051919;28;20259;-77
2022/08/19 12:43:45;;;;;;;22.37;20.10;;;19.30;99.90;;;;;;5051176;28;20222;-76
2022/08/19 12:46:13;;;;;;;21.60;19.40;;;19.50;99.90;;;;;;5053095;28;20203;-77
2022/08/19 12:48:42;;;;;;;27.33;24.87;;;19.60;99.90;;;;;;5053034;28;20198;-77
2022/08/19 12:51:11;;;;;;;23.30;21.00;;;19.60;99.90;;;;;;5052942;28;20199;-76
2022/08/19 12:53:38;;;;;;;22.10;19.90;;;19.60;99.90;;;;;;5050709;28;20260;-78
2022/08/19 12:56:06;;;;;;;20.63;18.63;;;19.60;99.90;;;;;;5051360;28;20233;-76